createdAt,value
2023-04-17T00:01:47.823Z,102414.78
2023-04-17T00:04:16.690Z,102405.66
2023-04-17T00:06:45.205Z,102422.31
2023-04-17T00:09:13.816Z,102415.22
2023-04-17T00:11:42.398Z,102405.28
2023-04-17T00:14:10.912Z,102412.50
2023-04-17T00:16:39.459Z,102399.97
2023-04-17T00:19:07.906Z,102395.72
2023-04-17T00:21:36.350Z,102402.03
2023-04-17T00:24:05.017Z,102399.25
2023-04-17T00:26:34.610Z,102389.09
2023-04-17T00:29:03.055Z,102384.75
2023-04-17T00:31:31.540Z,102392.56
2023-04-17T00:34:01.373Z,102389.75
2023-04-17T00:36:31.821Z,102389.31
2023-04-17T00:39:00.579Z,102386.44
2023-04-17T00:41:29.129Z,102390.38
2023-04-17T00:43:57.582Z,102389.31
2023-04-17T00:46:26.154Z,102388.66
2023-04-17T00:48:55.043Z,102385.94
2023-04-17T00:51:23.590Z,102395.84
2023-04-17T00:53:52.289Z,102386.53
2023-04-17T00:56:21.568Z,102389.91
2023-04-17T00:58:50.581Z,102381.09
2023-04-17T01:01:19.102Z,102383.28
2023-04-17T01:03:49.191Z,102380.53
2023-04-17T01:06:17.694Z,102387.16
2023-04-17T01:08:46.257Z,102384.06
2023-04-17T01:11:14.667Z,102388.53
2023-04-17T01:13:46.635Z,102387.91
2023-04-17T01:16:15.591Z,102384.44
2023-04-17T01:18:44.298Z,102387.50
2023-04-17T01:21:12.903Z,102387.13
2023-04-17T01:23:52.994Z,102390.88
2023-04-17T01:26:25.552Z,102386.19
2023-04-17T01:28:58.424Z,102384.50
2023-04-17T01:31:30.383Z,102385.59
2023-04-17T01:34:00.353Z,102379.72
2023-04-17T01:36:29.376Z,102387.91
2023-04-17T01:38:57.840Z,102386.25
2023-04-17T01:41:26.420Z,102384.09
2023-04-17T01:43:54.806Z,102386.53
2023-04-17T01:46:23.327Z,102396.56
2023-04-17T01:48:52.221Z,102392.69
2023-04-17T01:51:20.786Z,102386.91
2023-04-17T01:53:49.161Z,102383.91
2023-04-17T01:56:17.947Z,102398.44
2023-04-17T01:58:46.357Z,102396.31
2023-04-17T02:01:14.824Z,102392.72
2023-04-17T02:03:43.343Z,102393.13
2023-04-17T02:06:12.140Z,102385.69
2023-04-17T02:08:40.734Z,102396.91
2023-04-17T02:11:10.184Z,102395.72
2023-04-17T02:13:38.559Z,102390.06
2023-04-17T02:16:07.588Z,102382.13
2023-04-17T02:18:36.004Z,102389.97
2023-04-17T02:21:04.358Z,102394.53
2023-04-17T02:23:32.818Z,102393.09
2023-04-17T02:26:01.199Z,102395.31
2023-04-17T02:28:29.763Z,102391.44
2023-04-17T02:30:58.930Z,102395.00
2023-04-17T02:33:28.091Z,102391.63
2023-04-17T02:35:56.472Z,102391.19
2023-04-17T02:38:25.037Z,102392.09
2023-04-17T02:40:53.455Z,102384.94
2023-04-17T02:43:21.921Z,102388.25
2023-04-17T02:45:50.415Z,102390.78
2023-04-17T02:48:18.848Z,102391.50
2023-04-17T02:50:47.297Z,102400.28
2023-04-17T02:53:15.738Z,102400.09
2023-04-17T02:55:44.308Z,102400.09
2023-04-17T02:58:13.455Z,102405.09
2023-04-17T03:00:42.018Z,102399.78
2023-04-17T03:03:10.509Z,102400.56
2023-04-17T03:05:39.019Z,102401.63
2023-04-17T03:08:07.511Z,102402.88
2023-04-17T03:10:35.928Z,102407.03
2023-04-17T03:13:04.507Z,102403.28
2023-04-17T03:15:33.155Z,102408.88
2023-04-17T03:18:01.653Z,102406.66
2023-04-17T03:20:30.177Z,102409.31
2023-04-17T03:22:58.556Z,102407.38
2023-04-17T03:25:26.933Z,102405.72
2023-04-17T03:27:56.527Z,102395.41
2023-04-17T03:30:25.422Z,102391.03
2023-04-17T03:32:53.882Z,102397.00
2023-04-17T03:35:22.610Z,102402.88
2023-04-17T03:37:51.356Z,102403.53
2023-04-17T03:40:19.785Z,102400.06
2023-04-17T03:42:48.726Z,102387.03
2023-04-17T03:45:17.117Z,102392.88
2023-04-17T03:47:47.604Z,102398.84
2023-04-17T03:50:16.201Z,102386.56
2023-04-17T03:52:44.641Z,102394.97
2023-04-17T03:55:13.083Z,102390.41
2023-04-17T03:57:41.528Z,102388.22
2023-04-17T04:00:10.570Z,102400.03
2023-04-17T04:02:39.026Z,102385.25
2023-04-17T04:05:07.894Z,102392.25
2023-04-17T04:07:36.331Z,102388.13
2023-04-17T04:10:05.247Z,102389.72
2023-04-17T04:12:33.686Z,102392.13
2023-04-17T04:15:02.342Z,102388.28
2023-04-17T04:17:30.829Z,102382.66
2023-04-17T04:19:59.772Z,102395.97
2023-04-17T04:22:29.508Z,102386.50
2023-04-17T04:24:57.990Z,102389.28
2023-04-17T04:27:27.669Z,102393.03
2023-04-17T04:29:58.859Z,102403.94
2023-04-17T04:32:28.279Z,102402.47
2023-04-17T04:34:58.408Z,102406.63
2023-04-17T04:37:30.004Z,102398.28
2023-04-17T04:40:10.900Z,102409.13
2023-04-17T04:42:39.754Z,102422.28
2023-04-17T04:45:09.316Z,102416.88
2023-04-17T04:47:37.857Z,102413.94
2023-04-17T04:50:06.961Z,102422.09
2023-04-17T04:52:35.830Z,102423.56
2023-04-17T04:55:04.771Z,102427.03
2023-04-17T04:57:33.172Z,102410.88
2023-04-17T05:00:01.621Z,102429.53
2023-04-17T05:02:30.531Z,102414.94
2023-04-17T05:04:59.036Z,102423.03
2023-04-17T05:07:27.549Z,102429.38
2023-04-17T05:09:56.381Z,102426.25
2023-04-17T05:12:24.828Z,102420.25
2023-04-17T05:14:53.189Z,102439.94
2023-04-17T05:17:21.768Z,102437.53
2023-04-17T05:19:50.345Z,102438.06
2023-04-17T05:22:18.771Z,102447.38
2023-04-17T05:24:47.164Z,102441.84
2023-04-17T05:27:16.483Z,102438.00
2023-04-17T05:29:44.958Z,102427.13
2023-04-17T05:32:13.404Z,102442.25
2023-04-17T05:34:41.785Z,102442.28
2023-04-17T05:37:10.222Z,102443.13
2023-04-17T05:39:38.642Z,102441.03
2023-04-17T05:42:07.088Z,102444.13
2023-04-17T05:44:35.436Z,102452.22
2023-04-17T05:47:03.926Z,102451.72
2023-04-17T05:49:32.342Z,102447.56
2023-04-17T05:52:00.835Z,102446.50
2023-04-17T05:54:30.363Z,102446.50
2023-04-17T05:56:58.794Z,102452.03
2023-04-17T05:59:27.363Z,102451.25
2023-04-17T06:01:55.884Z,102447.13
2023-04-17T06:04:24.691Z,102454.72
2023-04-17T06:06:54.292Z,102460.09
2023-04-17T06:09:24.476Z,102452.63
2023-04-17T06:11:54.060Z,102455.22
2023-04-17T06:14:22.665Z,102460.81
2023-04-17T06:16:51.195Z,102449.38
2023-04-17T06:19:19.717Z,102459.53
2023-04-17T06:21:48.455Z,102461.22
2023-04-17T06:24:17.244Z,102454.88
2023-04-17T06:26:45.840Z,102468.19
2023-04-17T06:29:15.480Z,102474.09
2023-04-17T06:31:43.923Z,102472.44
2023-04-17T06:34:12.451Z,102469.53
2023-04-17T06:36:41.218Z,102474.16
2023-04-17T06:39:09.819Z,102488.34
2023-04-17T06:41:38.408Z,102472.94
2023-04-17T06:44:07.650Z,102473.34
2023-04-17T06:46:36.266Z,102473.91
2023-04-17T06:49:04.726Z,102479.81
2023-04-17T06:51:33.196Z,102490.78
2023-04-17T06:54:01.597Z,102491.63
2023-04-17T06:56:30.045Z,102493.78
2023-04-17T06:58:59.806Z,102499.31
2023-04-17T07:01:31.339Z,102493.09
2023-04-17T07:03:59.870Z,102491.41
2023-04-17T07:06:29.058Z,102491.50
2023-04-17T07:08:57.589Z,102498.72
2023-04-17T07:11:26.113Z,102495.13
2023-04-17T07:13:54.688Z,102504.59
2023-04-17T07:16:23.230Z,102513.84
2023-04-17T07:18:52.151Z,102499.03
2023-04-17T07:21:20.734Z,102499.38
2023-04-17T07:23:49.149Z,102513.47
2023-04-17T07:26:17.690Z,102509.72
2023-04-17T07:28:46.198Z,102518.41
2023-04-17T07:31:14.603Z,102523.47
2023-04-17T07:33:43.070Z,102523.38
2023-04-17T07:36:12.057Z,102524.56
2023-04-17T07:38:42.168Z,102522.66
2023-04-17T07:41:12.317Z,102518.75
2023-04-17T07:43:41.137Z,102501.47
2023-04-17T07:46:09.513Z,102525.56
2023-04-17T07:48:40.336Z,102529.78
2023-04-17T07:51:08.773Z,102535.50
2023-04-17T07:53:38.686Z,102528.56
2023-04-17T07:56:07.093Z,102530.91
2023-04-17T07:58:35.968Z,102538.75
2023-04-17T08:01:07.760Z,102537.25
2023-04-17T08:03:36.403Z,102527.72
2023-04-17T08:06:05.221Z,102535.44
2023-04-17T08:08:33.681Z,102537.53
2023-04-17T08:11:02.114Z,102543.88
2023-04-17T08:13:32.074Z,102537.28
2023-04-17T08:16:01.458Z,102537.94
2023-04-17T08:18:29.962Z,102549.47
2023-04-17T08:20:58.328Z,102547.06
2023-04-17T08:23:27.056Z,102544.56
2023-04-17T08:25:55.577Z,102534.91
2023-04-17T08:28:24.649Z,102543.22
2023-04-17T08:30:53.130Z,102539.06
2023-04-17T08:33:21.693Z,102548.94
2023-04-17T08:35:51.403Z,102541.13
2023-04-17T08:38:19.794Z,102549.81
2023-04-17T08:40:51.953Z,102540.44
2023-04-17T08:43:22.411Z,102543.50
2023-04-17T08:45:54.111Z,102556.72
2023-04-17T08:48:24.210Z,102544.16
2023-04-17T08:50:53.658Z,102546.63
2023-04-17T08:53:22.172Z,102549.47
2023-04-17T08:55:50.593Z,102537.06
2023-04-17T08:58:21.885Z,102543.00
2023-04-17T09:00:50.655Z,102548.19
2023-04-17T09:03:19.530Z,102541.31
2023-04-17T09:05:48.656Z,102548.72
2023-04-17T09:08:24.078Z,102551.56
2023-04-17T09:10:54.459Z,102540.03
2023-04-17T09:13:25.203Z,102552.06
2023-04-17T09:16:08.277Z,102559.66
2023-04-17T09:18:37.817Z,102549.84
2023-04-17T09:21:07.455Z,102552.75
2023-04-17T09:23:49.668Z,102561.53
2023-04-17T09:26:20.992Z,102561.81
2023-04-17T09:29:03.868Z,102561.31
2023-04-17T09:31:34.689Z,102556.41
2023-04-17T09:34:09.110Z,102555.34
2023-04-17T09:36:39.139Z,102567.91
2023-04-17T09:39:23.808Z,102546.28
2023-04-17T09:42:04.070Z,102549.41
2023-04-17T09:44:34.026Z,102547.03
2023-04-17T09:47:04.795Z,102561.91
2023-04-17T09:49:34.238Z,102552.78
2023-04-17T09:52:03.754Z,102551.09
2023-04-17T09:54:37.669Z,102547.06
2023-04-17T09:57:08.488Z,102553.94
2023-04-17T09:59:41.964Z,102556.47
2023-04-17T10:02:13.780Z,102569.88
2023-04-17T10:04:44.459Z,102551.28
2023-04-17T10:07:13.879Z,102550.88
2023-04-17T10:09:45.361Z,102550.38
2023-04-17T10:12:16.295Z,102543.66
2023-04-17T10:14:48.544Z,102547.31
2023-04-17T10:17:24.663Z,102547.50
2023-04-17T10:19:53.242Z,102563.59
2023-04-17T10:22:21.767Z,102539.69
2023-04-17T10:25:12.608Z,102551.91
2023-04-17T10:27:41.489Z,102550.19
2023-04-17T10:30:13.797Z,102542.75
2023-04-17T10:32:45.043Z,102554.16
2023-04-17T10:35:16.602Z,102532.50
2023-04-17T10:37:48.051Z,102544.94
2023-04-17T10:40:22.380Z,102548.00
2023-04-17T10:43:33.761Z,102554.19
2023-04-17T10:46:08.642Z,102544.28
2023-04-17T10:48:39.232Z,102543.00
2023-04-17T10:51:27.158Z,102539.50
2023-04-17T10:53:58.509Z,102542.81
2023-04-17T10:56:49.273Z,102541.91
2023-04-17T10:59:19.220Z,102541.28
2023-04-17T11:01:47.613Z,102534.25
2023-04-17T11:04:21.291Z,102550.16
2023-04-17T11:06:52.592Z,102530.50
2023-04-17T11:09:27.839Z,102534.38
2023-04-17T11:12:01.325Z,102527.91
2023-04-17T11:14:30.707Z,102533.59
2023-04-17T11:16:59.335Z,102527.03
2023-04-17T11:19:27.972Z,102527.63
2023-04-17T11:22:01.298Z,102532.25
2023-04-17T11:24:31.391Z,102524.88
2023-04-17T11:27:01.125Z,102527.66
2023-04-17T11:29:29.657Z,102533.97
2023-04-17T11:32:00.148Z,102531.06
2023-04-17T11:34:28.600Z,102536.28
2023-04-17T11:36:58.950Z,102523.22
2023-04-17T11:39:34.614Z,102534.69
2023-04-17T11:42:03.738Z,102535.94
2023-04-17T11:44:32.414Z,102533.53
2023-04-17T11:47:02.190Z,102526.63
2023-04-17T11:49:32.564Z,102515.88
2023-04-17T11:52:02.263Z,102531.50
2023-04-17T11:54:38.129Z,102531.50
2023-04-17T11:57:09.286Z,102522.66
2023-04-17T11:59:39.552Z,102508.81
2023-04-17T12:02:09.303Z,102516.75
2023-04-17T12:04:39.735Z,102505.31
2023-04-17T12:07:20.729Z,102512.03
2023-04-17T12:09:57.591Z,102507.19
2023-04-17T12:12:26.288Z,102514.75
2023-04-17T12:14:54.746Z,102512.22
2023-04-17T12:17:23.181Z,102508.09
2023-04-17T12:19:51.876Z,102521.69
2023-04-17T12:22:20.424Z,102520.56
2023-04-17T12:24:48.888Z,102520.44
2023-04-17T12:27:17.363Z,102519.59
2023-04-17T12:29:45.959Z,102527.72
2023-04-17T12:32:16.007Z,102529.34
2023-04-17T12:34:44.493Z,102536.88
2023-04-17T12:37:12.892Z,102532.19
2023-04-17T12:39:41.500Z,102541.13
2023-04-17T12:42:10.063Z,102525.63
2023-04-17T12:47:07.989Z,102520.72
2023-04-17T12:49:36.372Z,102520.31
2023-04-17T12:52:04.825Z,102519.81
2023-04-17T12:54:33.466Z,102526.53
2023-04-17T12:57:02.094Z,102524.97
2023-04-17T12:59:30.617Z,102531.03
2023-04-17T13:01:59.300Z,102527.63
2023-04-17T13:04:28.392Z,102525.81
2023-04-17T13:06:56.958Z,102522.44
2023-04-17T13:09:25.586Z,102528.56
2023-04-17T13:11:54.201Z,102518.66
2023-04-17T13:14:22.610Z,102520.06
2023-04-17T13:16:51.136Z,102506.84
2023-04-17T13:19:20.226Z,102512.72
2023-04-17T13:21:51.770Z,102510.03
2023-04-17T13:24:20.402Z,102523.22
2023-04-17T13:26:48.852Z,102502.09
2023-04-17T13:29:19.311Z,102494.34
2023-04-17T13:31:48.343Z,102493.00
2023-04-17T13:34:17.036Z,102498.78
2023-04-17T13:36:46.474Z,102493.84
2023-04-17T13:39:15.115Z,102498.41
2023-04-17T13:41:43.883Z,102500.44
2023-04-17T13:44:13.657Z,102506.59
2023-04-17T13:46:42.139Z,102496.38
2023-04-17T13:49:11.381Z,102491.13
2023-04-17T13:51:40.162Z,102482.44
2023-04-17T13:54:10.132Z,102476.81
2023-04-17T13:56:38.849Z,102486.03
2023-04-17T13:59:07.401Z,102475.41
2023-04-17T14:01:35.913Z,102478.50
2023-04-17T14:04:05.026Z,102485.25
2023-04-17T14:06:34.758Z,102485.44
2023-04-17T14:09:03.447Z,102476.50
2023-04-17T14:11:32.008Z,102485.16
2023-04-17T14:14:00.451Z,102476.28
2023-04-17T14:16:28.969Z,102475.53
2023-04-17T14:19:01.377Z,102482.78
2023-04-17T14:21:36.034Z,102474.91
2023-04-17T14:24:04.507Z,102475.66
2023-04-17T14:26:33.139Z,102469.69
2023-04-17T14:29:01.622Z,102475.72
2023-04-17T14:31:31.155Z,102464.22
2023-04-17T14:33:59.557Z,102471.66
2023-04-17T14:36:27.977Z,102453.59
2023-04-17T14:38:56.469Z,102458.47
2023-04-17T14:41:29.798Z,102456.00
2023-04-17T14:43:58.313Z,102456.25
2023-04-17T14:46:26.920Z,102459.16
2023-04-17T14:48:56.380Z,102452.03
2023-04-17T14:51:25.028Z,102457.94
2023-04-17T14:53:53.538Z,102454.72
2023-04-17T14:56:22.176Z,102442.56
2023-04-17T14:58:50.766Z,102450.75
2023-04-17T15:01:19.184Z,102442.84
2023-04-17T15:03:48.911Z,102452.91
2023-04-17T15:06:18.707Z,102451.34
2023-04-17T15:08:47.228Z,102448.50
2023-04-17T15:11:15.974Z,102441.31
2023-04-17T15:13:44.365Z,102441.59
2023-04-17T15:16:12.802Z,102435.84
2023-04-17T15:18:41.230Z,102447.09
2023-04-17T15:21:09.788Z,102452.44
2023-04-17T15:23:38.198Z,102435.00
2023-04-17T15:26:06.665Z,102443.81
2023-04-17T15:28:36.038Z,102444.63
2023-04-17T15:31:04.557Z,102448.63
2023-04-17T15:33:33.558Z,102450.19
2023-04-17T15:36:02.039Z,102450.00
2023-04-17T15:38:30.617Z,102448.63
2023-04-17T15:40:59.210Z,102445.13
2023-04-17T15:43:27.589Z,102443.25
2023-04-17T15:45:56.184Z,102434.97
2023-04-17T15:48:24.609Z,102438.22
2023-04-17T15:50:53.111Z,102441.06
2023-04-17T15:53:21.797Z,102440.22
2023-04-17T15:55:52.021Z,102436.63
2023-04-17T15:58:20.533Z,102443.13
2023-04-17T16:00:49.099Z,102439.06
2023-04-17T16:03:17.749Z,102434.50
2023-04-17T16:05:46.293Z,102422.25
2023-04-17T16:08:14.745Z,102428.44
2023-04-17T16:10:43.193Z,102427.84
2023-04-17T16:13:11.629Z,102419.25
2023-04-17T16:15:40.185Z,102419.28
2023-04-17T16:18:08.810Z,102424.88
2023-04-17T16:20:39.156Z,102428.63
2023-04-17T16:23:07.690Z,102426.66
2023-04-17T16:25:36.325Z,102428.63
2023-04-17T16:28:04.756Z,102431.34
2023-04-17T16:30:33.166Z,102429.66
2023-04-17T16:33:01.637Z,102426.16
2023-04-17T16:35:30.151Z,102423.88
2023-04-17T16:37:58.545Z,102423.41
2023-04-17T16:40:27.144Z,102416.50
2023-04-17T16:42:55.527Z,102424.81
2023-04-17T16:45:23.948Z,102429.44
2023-04-17T16:47:52.581Z,102428.16
2023-04-17T16:50:21.272Z,102430.47
2023-04-17T16:52:50.349Z,102432.44
2023-04-17T16:55:18.804Z,102428.16
2023-04-17T16:57:48.048Z,102424.63
2023-04-17T17:00:16.752Z,102425.31
2023-04-17T17:02:45.361Z,102429.47
2023-04-17T17:05:15.549Z,102420.28
2023-04-17T17:07:43.982Z,102432.81
2023-04-17T17:10:12.489Z,102428.06
2023-04-17T17:12:41.161Z,102420.69
2023-04-17T17:15:10.117Z,102418.56
2023-04-17T17:17:38.668Z,102421.81
2023-04-17T17:20:07.905Z,102420.28
2023-04-17T17:22:36.295Z,102422.06
2023-04-17T17:25:05.283Z,102427.91
2023-04-17T17:27:33.753Z,102433.25
2023-04-17T17:30:03.053Z,102420.78
2023-04-17T17:32:31.581Z,102421.22
2023-04-17T17:35:00.143Z,102422.38
2023-04-17T17:37:28.612Z,102425.25
2023-04-17T17:39:57.037Z,102430.75
2023-04-17T17:42:25.371Z,102430.03
2023-04-17T17:44:53.828Z,102425.75
2023-04-17T17:47:22.275Z,102425.09
2023-04-17T17:49:50.776Z,102420.34
2023-04-17T17:52:19.199Z,102427.56
2023-04-17T17:54:47.644Z,102424.81
2023-04-17T17:57:16.014Z,102429.53
2023-04-17T17:59:45.076Z,102432.91
2023-04-17T18:02:13.813Z,102426.03
2023-04-17T18:04:42.269Z,102431.75
2023-04-17T18:07:10.731Z,102423.50
2023-04-17T18:09:39.095Z,102433.00
2023-04-17T18:12:07.690Z,102437.59
2023-04-17T18:14:36.255Z,102434.75
2023-04-17T18:17:04.679Z,102425.16
2023-04-17T18:19:33.217Z,102426.03
2023-04-17T18:22:01.572Z,102424.34
2023-04-17T18:24:30.626Z,102432.19
2023-04-17T18:26:59.032Z,102427.16
2023-04-17T18:29:27.562Z,102427.63
2023-04-17T18:31:56.160Z,102434.28
2023-04-17T18:34:24.693Z,102429.19
2023-04-17T18:36:53.190Z,102434.84
2023-04-17T18:39:21.673Z,102433.50
2023-04-17T18:41:50.239Z,102440.59
2023-04-17T18:44:18.678Z,102442.91
2023-04-17T18:46:48.344Z,102447.34
2023-04-17T18:49:17.020Z,102449.31
2023-04-17T18:51:47.847Z,102442.50
2023-04-17T18:54:17.493Z,102440.75
2023-04-17T18:56:45.965Z,102444.88
2023-04-17T18:59:14.801Z,102442.69
2023-04-17T19:01:43.463Z,102442.72
2023-04-17T19:04:12.027Z,102444.81
2023-04-17T19:06:40.867Z,102443.13
2023-04-17T19:09:09.316Z,102436.78
2023-04-17T19:11:37.789Z,102442.84
2023-04-17T19:14:06.205Z,102438.16
2023-04-17T19:16:34.716Z,102437.47
2023-04-17T19:19:05.354Z,102432.88
2023-04-17T19:21:34.530Z,102436.47
2023-04-17T19:24:03.628Z,102439.28
2023-04-17T19:26:31.980Z,102447.31
2023-04-17T19:29:00.641Z,102450.19
2023-04-17T19:31:29.043Z,102448.56
2023-04-17T19:33:57.488Z,102447.38
2023-04-17T19:36:27.418Z,102445.91
2023-04-17T19:38:59.022Z,102445.50
2023-04-17T19:41:27.858Z,102449.06
2023-04-17T19:43:56.347Z,102456.81
2023-04-17T19:46:25.779Z,102447.97
2023-04-17T19:48:54.245Z,102444.25
2023-04-17T19:51:22.735Z,102448.19
2023-04-17T19:53:53.152Z,102450.69
2023-04-17T19:56:21.656Z,102440.06
2023-04-17T19:58:50.177Z,102441.41
2023-04-17T20:01:18.955Z,102445.75
2023-04-17T20:03:47.712Z,102440.50
2023-04-17T20:06:16.346Z,102445.28
2023-04-17T20:08:45.103Z,102446.38
2023-04-17T20:11:15.935Z,102447.78
2023-04-17T20:13:44.349Z,102445.66
2023-04-17T20:16:12.794Z,102437.06
2023-04-17T20:18:43.358Z,102445.41
2023-04-17T20:21:12.592Z,102441.59
2023-04-17T20:23:41.149Z,102450.28
2023-04-17T20:26:09.741Z,102441.97
2023-04-17T20:28:38.122Z,102437.94
2023-04-17T20:31:06.711Z,102442.44
2023-04-17T20:33:35.514Z,102443.75
2023-04-17T20:36:05.156Z,102439.22
2023-04-17T20:38:33.572Z,102447.75
2023-04-17T20:41:01.996Z,102449.72
2023-04-17T20:43:33.263Z,102441.44
2023-04-17T20:46:02.222Z,102444.69
2023-04-17T20:48:30.779Z,102442.59
2023-04-17T20:51:02.093Z,102448.28
2023-04-17T20:53:30.569Z,102446.59
2023-04-17T20:55:58.957Z,102439.66
2023-04-17T20:58:27.473Z,102437.31
2023-04-17T21:01:01.228Z,102442.63
2023-04-17T21:03:31.172Z,102431.56
2023-04-17T21:06:00.190Z,102432.69
2023-04-17T21:08:28.683Z,102427.31
2023-04-17T21:10:57.255Z,102427.47
2023-04-17T21:13:26.475Z,102427.91
2023-04-17T21:15:55.023Z,102426.34
2023-04-17T21:18:23.596Z,102420.69
2023-04-17T21:20:52.113Z,102428.72
2023-04-17T21:23:20.673Z,102435.22
2023-04-17T21:25:51.723Z,102429.13
2023-04-17T21:28:20.500Z,102432.06
2023-04-17T21:30:48.984Z,102439.56
2023-04-17T21:33:17.685Z,102428.34
2023-04-17T21:35:46.247Z,102438.38
2023-04-17T21:38:14.679Z,102440.50
2023-04-17T21:40:51.156Z,102434.50
2023-04-17T21:43:20.047Z,102439.47
2023-04-17T21:45:49.686Z,102434.28
2023-04-17T21:48:18.403Z,102431.69
2023-04-17T21:50:46.858Z,102440.47
2023-04-17T21:53:15.502Z,102437.03
2023-04-17T21:55:43.926Z,102431.22
2023-04-17T21:58:12.373Z,102432.75
2023-04-17T22:00:40.969Z,102438.78
2023-04-17T22:03:09.579Z,102442.59
2023-04-17T22:05:38.170Z,102436.53
2023-04-17T22:08:06.712Z,102445.31
2023-04-17T22:10:35.494Z,102445.84
2023-04-17T22:13:03.936Z,102443.00
2023-04-17T22:15:32.406Z,102439.91
2023-04-17T22:18:00.990Z,102444.41
2023-04-17T22:20:29.477Z,102448.25
2023-04-17T22:22:57.917Z,102442.78
2023-04-17T22:25:26.525Z,102445.69
2023-04-17T22:27:55.000Z,102447.69
2023-04-17T22:30:23.649Z,102442.50
2023-04-17T22:32:52.078Z,102441.09
2023-04-17T22:35:20.729Z,102438.84
2023-04-17T22:37:49.288Z,102434.75
2023-04-17T22:40:17.831Z,102436.22
2023-04-17T22:42:46.366Z,102435.78
2023-04-17T22:45:14.907Z,102435.28
2023-04-17T22:47:43.423Z,102441.09
2023-04-17T22:50:13.785Z,102436.66
2023-04-17T22:52:42.213Z,102444.00
2023-04-17T22:55:11.113Z,102442.84
2023-04-17T22:57:39.590Z,102444.63
2023-04-17T23:00:09.674Z,102441.56
2023-04-17T23:02:38.340Z,102443.47
2023-04-17T23:05:07.447Z,102443.47
2023-04-17T23:07:35.940Z,102440.66
2023-04-17T23:10:04.696Z,102443.59
2023-04-17T23:12:33.229Z,102448.03
2023-04-17T23:15:01.834Z,102447.59
2023-04-17T23:17:31.081Z,102448.09
2023-04-17T23:19:59.617Z,102450.94
2023-04-17T23:22:28.068Z,102442.44
2023-04-17T23:24:57.126Z,102445.09
2023-04-17T23:27:25.944Z,102440.22
2023-04-17T23:29:54.422Z,102433.31
2023-04-17T23:32:23.086Z,102433.69
2023-04-17T23:34:51.708Z,102443.41
2023-04-17T23:37:20.136Z,102447.69
2023-04-17T23:39:48.642Z,102441.44
2023-04-17T23:42:17.433Z,102444.38
2023-04-17T23:44:45.857Z,102451.13
2023-04-17T23:47:14.319Z,102437.78
2023-04-17T23:49:42.843Z,102438.50
2023-04-17T23:52:11.341Z,102436.66
2023-04-17T23:54:39.799Z,102436.66
2023-04-17T23:57:08.409Z,102441.09
2023-04-17T23:59:36.831Z,102437.78
